createdAt,value
2023-04-08T00:12:51.807Z,5.30
2023-04-08T00:25:51.806Z,4.50
2023-04-08T00:38:51.841Z,3.60
2023-04-08T00:51:51.862Z,3.40
2023-04-08T01:04:51.846Z,3.40
2023-04-08T01:17:51.926Z,3.50
2023-04-08T01:30:51.910Z,3.20
2023-04-08T01:43:51.927Z,3.10
2023-04-08T01:56:51.930Z,3.00
2023-04-08T02:09:51.917Z,3.30
2023-04-08T02:22:51.958Z,3.10
2023-04-08T02:35:51.956Z,3.30
2023-04-08T02:48:52.041Z,2.90
2023-04-08T03:01:52.073Z,2.80
2023-04-08T03:14:52.024Z,2.90
2023-04-08T03:27:52.054Z,2.70
2023-04-08T03:40:52.033Z,2.75
2023-04-08T03:53:52.038Z,3.20
2023-04-08T04:06:52.085Z,3.10
2023-04-08T04:19:52.200Z,2.80
2023-04-08T04:32:52.331Z,3.10
2023-04-08T04:46:52.353Z,3.00
2023-04-08T05:00:52.308Z,3.30
2023-04-08T05:14:52.347Z,5.40
2023-04-08T05:28:52.582Z,5.90
2023-04-08T05:42:52.429Z,6.00
2023-04-08T05:56:52.456Z,16.10
2023-04-08T06:10:52.459Z,24.40
2023-04-08T06:24:52.511Z,20.20
2023-04-08T06:38:52.538Z,19.20
2023-04-08T06:52:52.483Z,19.35
2023-04-08T07:06:52.503Z,20.60
2023-04-08T07:20:52.552Z,18.45
2023-04-08T07:34:52.564Z,16.55
2023-04-08T07:48:52.795Z,14.80
2023-04-08T08:02:52.713Z,14.00
2023-04-08T08:16:52.705Z,13.30
2023-04-08T08:30:52.733Z,11.80
2023-04-08T08:44:52.715Z,10.00
2023-04-08T08:58:52.752Z,8.70
2023-04-08T09:12:52.727Z,8.20
2023-04-08T09:26:52.831Z,11.50
2023-04-08T09:40:52.866Z,6.95
2023-04-08T09:54:52.921Z,6.55
2023-04-08T10:08:52.944Z,8.45
2023-04-08T10:22:52.911Z,7.20
2023-04-08T10:36:53.018Z,8.80
2023-04-08T10:50:53.020Z,6.50
2023-04-08T11:04:53.025Z,7.60
2023-04-08T11:18:53.056Z,8.00
2023-04-08T11:32:53.106Z,10.40
2023-04-08T11:46:53.096Z,6.30
2023-04-08T12:00:53.070Z,6.60
2023-04-08T12:14:53.089Z,6.50
2023-04-08T12:28:53.171Z,6.00
2023-04-08T12:42:53.230Z,9.00
2023-04-08T12:56:53.205Z,6.80
2023-04-08T13:10:53.204Z,5.80
2023-04-08T13:24:53.244Z,5.30
2023-04-08T13:38:53.339Z,3.20
2023-04-08T13:52:53.227Z,3.90
2023-04-08T14:06:53.307Z,4.90
2023-04-08T14:20:53.222Z,3.90
2023-04-08T14:34:53.264Z,3.90
2023-04-08T14:48:53.443Z,3.20
2023-04-08T15:02:53.357Z,7.80
2023-04-08T15:16:53.265Z,10.00
2023-04-08T15:30:53.276Z,6.70
2023-04-08T15:44:53.321Z,7.50
2023-04-08T15:58:53.414Z,9.00
2023-04-08T16:12:53.325Z,6.50
2023-04-08T16:26:53.344Z,8.80
2023-04-08T16:40:53.373Z,4.20
2023-04-08T16:54:53.435Z,9.00
2023-04-08T17:08:53.520Z,8.60
2023-04-08T17:22:53.486Z,8.20
2023-04-08T17:34:53.537Z,4.90
2023-04-08T17:46:53.501Z,5.50
2023-04-08T17:57:53.521Z,6.70
2023-04-08T18:08:53.534Z,9.60
2023-04-08T18:22:53.516Z,7.10
2023-04-08T18:33:53.645Z,6.50
2023-04-08T18:43:53.673Z,7.10
2023-04-08T18:53:53.786Z,5.60
2023-04-08T19:03:53.804Z,5.30
2023-04-08T19:13:53.613Z,7.40
2023-04-08T19:26:53.623Z,5.70
2023-04-08T19:36:53.652Z,11.00
2023-04-08T19:46:53.680Z,24.00
2023-04-08T19:56:53.738Z,18.90
2023-04-08T20:06:53.718Z,17.30
2023-04-08T20:16:53.726Z,15.40
2023-04-08T20:26:53.781Z,27.80
2023-04-08T20:39:53.780Z,33.90
2023-04-08T20:49:53.753Z,27.20
2023-04-08T21:02:53.783Z,23.00
2023-04-08T21:12:53.780Z,21.40
2023-04-08T21:22:53.823Z,20.40
2023-04-08T21:32:53.823Z,18.80
2023-04-08T21:42:53.791Z,16.80
2023-04-08T21:52:53.800Z,17.30
2023-04-08T22:02:53.925Z,15.40
2023-04-08T22:12:53.844Z,15.00
2023-04-08T22:22:53.838Z,12.80
2023-04-08T22:32:53.873Z,12.60
2023-04-08T22:42:53.826Z,12.70
2023-04-08T22:52:53.919Z,12.30
2023-04-08T23:02:54.045Z,9.75
2023-04-08T23:12:53.925Z,10.40
2023-04-08T23:22:53.929Z,9.40
2023-04-08T23:32:53.972Z,10.20
2023-04-08T23:42:53.932Z,8.60
2023-04-08T23:52:53.946Z,6.80
